Crystal Symphony — C6MY5 — position and weather

sailwx.info

Track history (hours):
 
Tides and Currents Weather Stations Pressure Air Temp Water Temp Dewpoint Dewpoint Depression Visibility Wind Speed Wind Dir Waves Ship Positions

Crystal Symphony

Operator: Crystal Cruises

Last reported at 2018-Dec-12 14:58 UTC. Time now 2018-Dec-12 15:26 UTC.
Position N 20°31' W 086°57'.

Length 238 m; draft 8 m.

Type: Ship. MMSI: 309168000.

Date/timePositionNaut miles runAvg speedWind from/ knotsBaromVisibWave heightAir tempDewpointWater temp
2018-Dec-12 14:58N 20°31' W 086°57'0 0.0
2018-Dec-12 14:25N 20°31' W 086°57'0 0.0
2018-Dec-12 13:58N 20°31' W 086°57'0 0.0
2018-Dec-12 13:28N 20°31' W 086°57'0 0.0
2018-Dec-12 12:58N 20°31' W 086°57'0 0.0
2018-Dec-12 12:31N 20°31' W 086°57'1 1.5
2018-Dec-12 12:00N 20°31' W 086°58'4 8.2
2018-Dec-12 11:30N 20°35' W 086°57'27715.0
2018-Dec-11 17:00N 19°24' W 082°12'22015.7 010 / 381021.510.8 26.026.026.0
2018-Dec-11 03:00N 18°42' W 078°24'240 8.9 090 / 171020.510.8 28.028.026.0
2018-Dec-10 00:00N 17°00' W 074°36'   090 / 171017.5 5.4 28.028.026.0
2018-Dec-06 16:00N 17°54' W 068°18'38510.4 090 / 251021.527.0 28.028.026.0
2018-Dec-05 03:00N 22°54' W 072°36'12612.6 180 / 101019.510.8 27.027.026.0
2018-Dec-04 17:00N 24°18' W 074°18'22317.1 200 / 21019.527.0 27.027.026.0
2018-Dec-04 03:58N 25°60' W 077°57'917.9
2018-Dec-04 03:29N 26°02' W 078°06'817.8
2018-Dec-04 03:00N 26°04' W 078°15'917.7
2018-Dec-04 02:30N 26°06' W 078°25'917.7
2018-Dec-04 02:00N 26°08' W 078°34'1317.8
2018-Dec-04 01:17N 26°12' W 078°48'517.7
2018-Dec-04 01:00N 26°12' W 078°54'1317.9
2018-Dec-04 00:15N 26°11' W 079°09'517.6
2018-Dec-03 23:59N 26°08' W 079°12'918.3
2018-Dec-03 23:30N 26°01' W 079°19'1018.6
2018-Dec-03 22:59N 25°52' W 079°21'816.7
2018-Dec-03 22:31N 25°44' W 079°20'4 0.3
2018-Dec-03 11:37N 25°41' W 079°23'2 9.9
2018-Dec-03 11:26N 25°40' W 079°25'511.4
2018-Dec-03 11:00N 25°36' W 079°26'27 9.5
2018-Dec-03 08:11N 25°11' W 079°37'2 9.0
2018-Dec-03 08:00N 25°11' W 079°38'4 7.6
2018-Dec-03 07:30N 25°15' W 079°40'6 7.6
2018-Dec-03 06:46N 25°21' W 079°40'3 7.3
2018-Dec-03 06:24N 25°23' W 079°40'3 7.3
2018-Dec-03 06:00N 25°26' W 079°40'4 7.4
2018-Dec-03 05:30N 25°30' W 079°40'4 7.3
2018-Dec-03 05:00N 25°34' W 079°40'4 7.6
2018-Dec-03 04:29N 25°38' W 079°41'5 9.5
2018-Dec-03 04:00N 25°42' W 079°41'4 7.5
2018-Dec-03 03:30N 25°46' W 079°41'4 7.0
2018-Dec-03 03:00N 25°49' W 079°41'4 8.2
2018-Dec-03 02:30N 25°53' W 079°41'510.3
2018-Dec-03 02:00N 25°56' W 079°46'510.7
2018-Dec-03 01:30N 25°59' W 079°51'510.6
2018-Dec-03 01:00N 26°02' W 079°56'510.8
2018-Dec-03 00:30N 26°04' W 080°02'4 8.4
2018-Dec-03 00:00N 26°06' W 080°06'1 1.9
2018-Dec-02 23:30N 26°05' W 080°07'0 0.0
2018-Dec-02 23:00N 26°05' W 080°07'0 0.0
2018-Dec-02 22:27N 26°05' W 080°07'0 0.0
2018-Dec-02 21:57N 26°05' W 080°07'0 0.0
2018-Dec-02 21:21N 26°05' W 080°07'0 0.0
2018-Dec-02 21:00N 26°05' W 080°07'0 0.0
2018-Dec-02 20:29N 26°05' W 080°07'0 0.0
2018-Dec-02 19:59N 26°05' W 080°07'0 0.0
2018-Dec-02 19:23N 26°05' W 080°07'0 0.0
2018-Dec-02 18:50N 26°05' W 080°07'0 0.0
2018-Dec-02 18:28N 26°05' W 080°07'0 0.0
2018-Dec-02 17:58N 26°05' W 080°07'0 0.0
2018-Dec-02 17:28N 26°05' W 080°07'0 0.0
2018-Dec-02 16:52N 26°05' W 080°07'0 0.0
2018-Dec-02 16:18N 26°05' W 080°07'0 0.0
2018-Dec-02 16:00N 26°05' W 080°07'0 0.0
2018-Dec-02 15:27N 26°05' W 080°07'  
Track history (hours):
 
Tides and Currents Weather Stations Pressure Air Temp Water Temp Dewpoint Dewpoint Depression Visibility Wind Speed Wind Dir Waves Ship Positions

Crystal Symphony

Operator: Crystal Cruises

Last reported at 2018-Dec-12 14:58 UTC. Time now 2018-Dec-12 15:26 UTC.
Position N 20°31' W 086°57'.

Length 238 m; draft 8 m.

Type: Ship. MMSI: 309168000.

Date/timePositionNaut miles runAvg speedWind from/ knotsBaromVisibWave heightAir tempDewpointWater temp
2018-Dec-12 14:58N 20°31' W 086°57'0 0.0
2018-Dec-12 14:25N 20°31' W 086°57'0 0.0
2018-Dec-12 13:58N 20°31' W 086°57'0 0.0
2018-Dec-12 13:28N 20°31' W 086°57'0 0.0
2018-Dec-12 12:58N 20°31' W 086°57'0 0.0
2018-Dec-12 12:31N 20°31' W 086°57'1 1.5
2018-Dec-12 12:00N 20°31' W 086°58'4 8.2
2018-Dec-12 11:30N 20°35' W 086°57'27715.0
2018-Dec-11 17:00N 19°24' W 082°12'22015.7 010 / 381021.510.8 26.026.026.0
2018-Dec-11 03:00N 18°42' W 078°24'240 8.9 090 / 171020.510.8 28.028.026.0
2018-Dec-10 00:00N 17°00' W 074°36'   090 / 171017.5 5.4 28.028.026.0
2018-Dec-06 16:00N 17°54' W 068°18'38510.4 090 / 251021.527.0 28.028.026.0
2018-Dec-05 03:00N 22°54' W 072°36'12612.6 180 / 101019.510.8 27.027.026.0
2018-Dec-04 17:00N 24°18' W 074°18'22317.1 200 / 21019.527.0 27.027.026.0
2018-Dec-04 03:58N 25°60' W 077°57'917.9
2018-Dec-04 03:29N 26°02' W 078°06'817.8
2018-Dec-04 03:00N 26°04' W 078°15'917.7
2018-Dec-04 02:30N 26°06' W 078°25'917.7
2018-Dec-04 02:00N 26°08' W 078°34'1317.8
2018-Dec-04 01:17N 26°12' W 078°48'517.7
2018-Dec-04 01:00N 26°12' W 078°54'1317.9
2018-Dec-04 00:15N 26°11' W 079°09'517.6
2018-Dec-03 23:59N 26°08' W 079°12'918.3
2018-Dec-03 23:30N 26°01' W 079°19'1018.6
2018-Dec-03 22:59N 25°52' W 079°21'816.7
2018-Dec-03 22:31N 25°44' W 079°20'4 0.3
2018-Dec-03 11:37N 25°41' W 079°23'2 9.9
2018-Dec-03 11:26N 25°40' W 079°25'511.4
2018-Dec-03 11:00N 25°36' W 079°26'27 9.5
2018-Dec-03 08:11N 25°11' W 079°37'2 9.0
2018-Dec-03 08:00N 25°11' W 079°38'4 7.6
2018-Dec-03 07:30N 25°15' W 079°40'6 7.6
2018-Dec-03 06:46N 25°21' W 079°40'3 7.3
2018-Dec-03 06:24N 25°23' W 079°40'3 7.3
2018-Dec-03 06:00N 25°26' W 079°40'4 7.4
2018-Dec-03 05:30N 25°30' W 079°40'4 7.3
2018-Dec-03 05:00N 25°34' W 079°40'4 7.6
2018-Dec-03 04:29N 25°38' W 079°41'5 9.5
2018-Dec-03 04:00N 25°42' W 079°41'4 7.5
2018-Dec-03 03:30N 25°46' W 079°41'4 7.0
2018-Dec-03 03:00N 25°49' W 079°41'4 8.2
2018-Dec-03 02:30N 25°53' W 079°41'510.3
2018-Dec-03 02:00N 25°56' W 079°46'510.7
2018-Dec-03 01:30N 25°59' W 079°51'510.6
2018-Dec-03 01:00N 26°02' W 079°56'510.8
2018-Dec-03 00:30N 26°04' W 080°02'4 8.4
2018-Dec-03 00:00N 26°06' W 080°06'1 1.9
2018-Dec-02 23:30N 26°05' W 080°07'0 0.0
2018-Dec-02 23:00N 26°05' W 080°07'0 0.0
2018-Dec-02 22:27N 26°05' W 080°07'0 0.0
2018-Dec-02 21:57N 26°05' W 080°07'0 0.0
2018-Dec-02 21:21N 26°05' W 080°07'0 0.0
2018-Dec-02 21:00N 26°05' W 080°07'0 0.0
2018-Dec-02 20:29N 26°05' W 080°07'0 0.0
2018-Dec-02 19:59N 26°05' W 080°07'0 0.0
2018-Dec-02 19:23N 26°05' W 080°07'0 0.0
2018-Dec-02 18:50N 26°05' W 080°07'0 0.0
2018-Dec-02 18:28N 26°05' W 080°07'0 0.0
2018-Dec-02 17:58N 26°05' W 080°07'0 0.0
2018-Dec-02 17:28N 26°05' W 080°07'0 0.0
2018-Dec-02 16:52N 26°05' W 080°07'0 0.0
2018-Dec-02 16:18N 26°05' W 080°07'0 0.0
2018-Dec-02 16:00N 26°05' W 080°07'0 0.0
2018-Dec-02 15:27N 26°05' W 080°07'  

Dump ship's entire track history